createdAt,value
2019-01-16T00:01:03.212Z,99.90
2019-01-16T00:03:50.413Z,99.90
2019-01-16T00:06:47.990Z,99.90
2019-01-16T00:09:43.286Z,99.90
2019-01-16T00:12:32.400Z,99.90
2019-01-16T00:15:09.973Z,99.90
2019-01-16T00:17:57.469Z,99.90
2019-01-16T00:20:45.862Z,99.90
2019-01-16T00:23:36.610Z,99.90
2019-01-16T00:26:28.124Z,99.90
2019-01-16T00:29:15.566Z,99.90
2019-01-16T00:32:06.989Z,99.90
2019-01-16T00:35:11.500Z,99.90
2019-01-16T00:38:00.787Z,99.90
2019-01-16T00:40:47.120Z,99.90
2019-01-16T00:43:35.185Z,99.90
2019-01-16T00:46:39.527Z,99.90
2019-01-16T00:49:33.674Z,99.90
2019-01-16T00:52:22.758Z,99.90
2019-01-16T00:55:20.201Z,99.90
2019-01-16T00:58:14.999Z,99.90
2019-01-16T01:01:02.013Z,99.90
2019-01-16T01:03:56.563Z,99.90
2019-01-16T01:06:39.492Z,99.90
2019-01-16T01:09:16.904Z,99.90
2019-01-16T01:12:11.693Z,99.90
2019-01-16T01:15:15.248Z,99.90
2019-01-16T01:18:06.622Z,99.90
2019-01-16T01:20:53.525Z,99.90
2019-01-16T01:23:35.676Z,99.90
2019-01-16T01:26:31.225Z,99.90
2019-01-16T01:29:18.470Z,99.90
2019-01-16T01:32:05.935Z,99.90
2019-01-16T01:34:54.458Z,99.90
2019-01-16T01:37:41.545Z,99.90
2019-01-16T01:40:29.198Z,99.90
2019-01-16T01:43:16.936Z,99.90
2019-01-16T01:46:05.424Z,99.90
2019-01-16T01:48:47.138Z,99.90
2019-01-16T01:51:29.710Z,99.90
2019-01-16T01:54:27.329Z,99.90
2019-01-16T01:57:16.029Z,99.90
2019-01-16T02:00:02.344Z,99.90
2019-01-16T02:03:07.407Z,99.90
2019-01-16T02:05:48.868Z,99.90
2019-01-16T02:08:46.545Z,99.90
2019-01-16T02:11:43.389Z,99.90
2019-01-16T02:14:28.817Z,99.90
2019-01-16T02:17:16.213Z,99.90
2019-01-16T02:20:07.539Z,99.90
2019-01-16T02:22:47.345Z,99.90
2019-01-16T02:25:42.805Z,99.90
2019-01-16T02:28:34.385Z,99.90
2019-01-16T02:31:25.069Z,99.90
2019-01-16T02:34:14.581Z,99.90
2019-01-16T02:37:06.581Z,99.90
2019-01-16T02:39:53.920Z,99.90
2019-01-16T02:42:47.140Z,99.90
2019-01-16T02:45:39.957Z,99.90
2019-01-16T02:48:33.784Z,99.90
2019-01-16T02:51:23.369Z,99.90
2019-01-16T02:54:10.521Z,99.90
2019-01-16T02:56:57.504Z,99.90
2019-01-16T02:59:34.038Z,99.90
2019-01-16T03:02:21.690Z,99.90
2019-01-16T03:05:03.140Z,99.90
2019-01-16T03:07:47.783Z,99.90
2019-01-16T03:10:48.321Z,99.90
2019-01-16T03:13:26.735Z,99.90
2019-01-16T03:16:08.291Z,99.90
2019-01-16T03:19:08.325Z,99.90
2019-01-16T03:21:56.147Z,99.90
2019-01-16T03:24:36.591Z,99.90
2019-01-16T03:27:24.688Z,99.90
2019-01-16T03:30:18.929Z,99.90
2019-01-16T03:33:06.414Z,99.90
2019-01-16T03:35:53.650Z,99.90
2019-01-16T03:38:45.326Z,99.90
2019-01-16T03:41:39.769Z,99.90
2019-01-16T03:44:31.181Z,99.90
2019-01-16T03:47:17.549Z,99.90
2019-01-16T03:50:05.623Z,99.90
2019-01-16T03:52:57.476Z,99.90
2019-01-16T03:55:45.837Z,99.90
2019-01-16T03:58:31.574Z,99.90
2019-01-16T04:01:30.960Z,99.90
2019-01-16T04:04:31.358Z,99.90
2019-01-16T04:07:26.626Z,99.90
2019-01-16T04:10:17.182Z,99.90
2019-01-16T04:13:20.938Z,99.90
2019-01-16T04:16:18.760Z,99.90
2019-01-16T04:19:06.503Z,99.90
2019-01-16T04:22:06.216Z,99.90
2019-01-16T04:24:48.445Z,99.90
2019-01-16T04:27:34.350Z,99.90
2019-01-16T04:30:33.218Z,99.90
2019-01-16T04:33:39.107Z,99.90
2019-01-16T04:36:18.250Z,99.90
2019-01-16T04:39:15.299Z,99.90
2019-01-16T04:42:08.363Z,99.90
2019-01-16T04:45:03.230Z,99.90
2019-01-16T04:47:52.297Z,99.90
2019-01-16T04:50:47.582Z,99.90
2019-01-16T04:53:26.383Z,99.90
2019-01-16T04:56:18.688Z,99.90
2019-01-16T04:59:25.929Z,99.90
2019-01-16T05:02:14.507Z,99.90
2019-01-16T05:05:04.610Z,99.90
2019-01-16T05:07:43.216Z,99.90
2019-01-16T05:10:33.158Z,99.90
2019-01-16T05:13:28.675Z,99.90
2019-01-16T05:16:29.104Z,99.90
2019-01-16T05:19:16.975Z,99.90
2019-01-16T05:22:04.470Z,99.90
2019-01-16T05:24:52.365Z,99.90
2019-01-16T05:27:50.431Z,99.90
2019-01-16T05:30:41.439Z,99.90
2019-01-16T05:33:28.742Z,99.90
2019-01-16T05:36:15.707Z,99.90
2019-01-16T05:39:03.649Z,99.90
2019-01-16T05:41:52.013Z,99.90
2019-01-16T05:44:39.349Z,99.90
2019-01-16T05:47:26.764Z,99.90
2019-01-16T05:50:14.143Z,99.90
2019-01-16T05:52:51.412Z,99.90
2019-01-16T05:55:40.252Z,99.90
2019-01-16T05:58:32.435Z,99.90
2019-01-16T06:01:23.566Z,99.90
2019-01-16T06:04:21.546Z,99.90
2019-01-16T06:07:12.285Z,99.90
2019-01-16T06:10:01.856Z,99.90
2019-01-16T06:12:50.187Z,99.90
2019-01-16T06:15:36.392Z,99.90
2019-01-16T06:18:43.428Z,99.90
2019-01-16T06:21:40.644Z,99.90
2019-01-16T06:24:32.003Z,99.90
2019-01-16T06:27:17.305Z,99.90
2019-01-16T06:30:15.677Z,99.90
2019-01-16T06:33:13.900Z,99.90
2019-01-16T06:36:06.314Z,99.90
2019-01-16T06:38:59.428Z,99.90
2019-01-16T06:41:46.429Z,99.90
2019-01-16T06:44:48.219Z,99.90
2019-01-16T06:47:27.453Z,99.90
2019-01-16T06:50:19.823Z,99.90
2019-01-16T06:53:08.990Z,99.90
2019-01-16T06:56:00.519Z,99.90
2019-01-16T06:58:55.833Z,99.90
2019-01-16T07:01:45.090Z,99.90
2019-01-16T07:04:41.108Z,99.90
2019-01-16T07:07:36.645Z,99.90
2019-01-16T07:10:26.016Z,99.90
2019-01-16T07:13:32.678Z,99.90
2019-01-16T07:16:19.365Z,99.90
2019-01-16T07:19:07.213Z,99.90
2019-01-16T07:21:54.557Z,99.90
2019-01-16T07:25:01.730Z,99.90
2019-01-16T07:27:55.975Z,99.90
2019-01-16T07:30:43.302Z,99.90
2019-01-16T07:33:30.231Z,99.90
2019-01-16T07:36:28.071Z,99.90
2019-01-16T07:39:19.469Z,99.90
2019-01-16T07:42:15.024Z,99.90
2019-01-16T07:45:15.786Z,99.90
2019-01-16T07:48:13.010Z,99.90
2019-01-16T07:51:02.663Z,99.90
2019-01-16T07:54:06.304Z,99.90
2019-01-16T07:56:45.290Z,99.90
2019-01-16T07:59:34.996Z,99.90
2019-01-16T08:02:22.594Z,99.90
2019-01-16T08:05:23.825Z,99.90
2019-01-16T08:08:20.077Z,99.90
2019-01-16T08:11:09.265Z,99.90
2019-01-16T08:13:58.422Z,99.90
2019-01-16T08:17:05.199Z,99.90
2019-01-16T08:19:52.087Z,99.90
2019-01-16T08:22:40.005Z,99.90
2019-01-16T08:25:37.565Z,99.90
2019-01-16T08:28:34.262Z,99.90
2019-01-16T08:31:28.655Z,99.90
2019-01-16T08:34:25.674Z,99.90
2019-01-16T08:37:17.812Z,99.90
2019-01-16T08:40:05.387Z,99.90
2019-01-16T08:43:03.740Z,99.90
2019-01-16T08:46:04.082Z,99.90
2019-01-16T08:48:51.156Z,99.90
2019-01-16T08:51:45.862Z,99.90
2019-01-16T08:54:41.357Z,99.90
2019-01-16T08:57:28.350Z,99.90
2019-01-16T09:00:32.198Z,99.90
2019-01-16T09:03:19.855Z,99.90
2019-01-16T09:06:18.610Z,99.90
2019-01-16T09:09:16.374Z,99.90
2019-01-16T09:11:59.283Z,96.90
2019-01-16T09:14:50.081Z,92.10
2019-01-16T09:17:46.680Z,86.70
2019-01-16T09:20:40.101Z,85.20
2019-01-16T09:23:24.253Z,80.70
2019-01-16T09:26:16.098Z,72.00
2019-01-16T09:29:07.500Z,64.50
2019-01-16T09:31:57.804Z,64.70
2019-01-16T09:34:47.941Z,63.70
2019-01-16T09:37:35.758Z,63.20
2019-01-16T09:40:29.885Z,65.00
2019-01-16T09:43:17.553Z,66.20
2019-01-16T09:46:02.354Z,66.50
2019-01-16T09:48:51.164Z,66.70
2019-01-16T09:51:45.785Z,64.00
2019-01-16T09:54:38.962Z,62.90
2019-01-16T09:57:26.008Z,62.40
2019-01-16T10:00:13.849Z,63.60
2019-01-16T10:03:02.476Z,62.80
2019-01-16T10:06:00.237Z,62.90
2019-01-16T10:08:48.576Z,62.60
2019-01-16T10:11:36.056Z,62.10
2019-01-16T10:14:18.395Z,62.70
2019-01-16T10:16:56.613Z,63.00
2019-01-16T10:19:45.584Z,63.20
2019-01-16T10:22:25.661Z,64.50
2019-01-16T10:25:23.281Z,66.60
2019-01-16T10:28:17.713Z,69.30
2019-01-16T10:31:12.901Z,69.40
2019-01-16T10:34:02.771Z,70.00
2019-01-16T10:36:55.121Z,75.30
2019-01-16T10:39:43.436Z,84.10
2019-01-16T10:42:25.086Z,92.20
2019-01-16T10:45:10.299Z,96.50
2019-01-16T10:48:01.526Z,99.20
2019-01-16T10:50:52.547Z,99.90
2019-01-16T10:53:48.656Z,99.90
2019-01-16T10:56:34.161Z,99.90
2019-01-16T10:59:13.440Z,99.90
2019-01-16T11:02:00.702Z,99.90
2019-01-16T11:05:05.045Z,99.90
2019-01-16T11:08:06.937Z,99.90
2019-01-16T11:10:58.914Z,99.90
2019-01-16T11:13:57.207Z,99.90
2019-01-16T11:16:56.400Z,99.90
2019-01-16T11:19:51.132Z,99.90
2019-01-16T11:22:37.300Z,99.90
2019-01-16T11:25:43.148Z,99.90
2019-01-16T11:28:29.950Z,99.90
2019-01-16T11:31:38.796Z,99.90
2019-01-16T11:34:25.885Z,99.90
2019-01-16T11:37:13.431Z,99.90
2019-01-16T11:39:55.489Z,99.90
2019-01-16T11:42:58.125Z,99.90
2019-01-16T11:45:38.222Z,99.90
2019-01-16T11:48:38.772Z,99.90
2019-01-16T11:51:33.671Z,99.90
2019-01-16T11:54:30.268Z,99.90
2019-01-16T11:57:18.733Z,99.90
2019-01-16T11:59:58.212Z,99.90
2019-01-16T12:03:04.916Z,99.90
2019-01-16T12:05:43.308Z,99.90
2019-01-16T12:08:34.938Z,99.90
2019-01-16T12:11:24.162Z,99.90
2019-01-16T12:14:12.737Z,99.90
2019-01-16T12:17:05.061Z,99.90
2019-01-16T12:20:02.728Z,99.90
2019-01-16T12:23:06.196Z,99.90
2019-01-16T12:25:54.371Z,99.90
2019-01-16T12:28:49.168Z,99.90
2019-01-16T12:31:32.774Z,99.90
2019-01-16T12:34:31.216Z,99.90
2019-01-16T12:37:18.194Z,99.90
2019-01-16T12:40:13.566Z,99.90
2019-01-16T12:43:02.233Z,99.90
2019-01-16T12:45:40.424Z,99.90
2019-01-16T12:48:30.407Z,99.90
2019-01-16T12:51:23.345Z,99.90
2019-01-16T12:54:10.274Z,99.90
2019-01-16T12:57:01.265Z,99.90
2019-01-16T12:59:48.169Z,99.90
2019-01-16T13:02:50.526Z,99.90
2019-01-16T13:05:45.412Z,99.90
2019-01-16T13:08:25.380Z,99.90
2019-01-16T13:11:15.477Z,99.90
2019-01-16T13:14:02.489Z,99.90
2019-01-16T13:17:09.939Z,99.90
2019-01-16T13:20:00.304Z,99.90
2019-01-16T13:22:46.547Z,99.90
2019-01-16T13:25:45.447Z,99.90
2019-01-16T13:28:39.114Z,99.90
2019-01-16T13:31:36.267Z,99.90
2019-01-16T13:34:43.511Z,99.90
2019-01-16T13:37:33.720Z,99.90
2019-01-16T13:40:26.236Z,99.90
2019-01-16T13:43:14.594Z,99.90
2019-01-16T13:46:01.196Z,99.90
2019-01-16T13:49:02.995Z,99.90
2019-01-16T13:51:52.664Z,99.90
2019-01-16T13:54:43.602Z,99.90
2019-01-16T13:57:32.201Z,99.90
2019-01-16T14:00:23.934Z,99.90
2019-01-16T14:03:16.400Z,99.90
2019-01-16T14:06:07.746Z,99.90
2019-01-16T14:09:02.536Z,99.90
2019-01-16T14:11:58.294Z,99.90
2019-01-16T14:14:57.646Z,99.90
2019-01-16T14:17:52.938Z,99.90
2019-01-16T14:20:40.765Z,99.90
2019-01-16T14:23:29.229Z,99.90
2019-01-16T14:26:32.961Z,99.90
2019-01-16T14:29:12.755Z,99.90
2019-01-16T14:32:02.474Z,99.90
2019-01-16T14:34:46.909Z,99.90
2019-01-16T14:37:51.217Z,99.90
2019-01-16T14:40:45.183Z,99.90
2019-01-16T14:43:53.198Z,99.90
2019-01-16T14:46:57.890Z,99.90
2019-01-16T14:49:47.242Z,99.90
2019-01-16T14:52:42.726Z,99.90
2019-01-16T14:55:25.917Z,99.90
2019-01-16T14:58:23.477Z,99.90
2019-01-16T15:01:14.597Z,99.90
2019-01-16T15:04:01.414Z,99.90
2019-01-16T15:06:49.711Z,99.90
2019-01-16T15:09:37.801Z,99.90
2019-01-16T15:12:29.821Z,99.90
2019-01-16T15:15:21.065Z,99.90
2019-01-16T15:18:19.305Z,99.90
2019-01-16T15:21:06.712Z,99.90
2019-01-16T15:23:49.846Z,99.90
2019-01-16T15:26:30.261Z,99.90
2019-01-16T15:29:27.879Z,99.90
2019-01-16T15:32:12.846Z,99.90
2019-01-16T15:34:50.845Z,99.90
2019-01-16T15:37:42.916Z,99.90
2019-01-16T15:40:48.983Z,99.90
2019-01-16T15:43:50.478Z,99.90
2019-01-16T15:46:47.101Z,99.90
2019-01-16T15:49:35.692Z,99.90
2019-01-16T15:52:27.745Z,99.90
2019-01-16T15:55:07.989Z,99.90
2019-01-16T15:57:46.133Z,99.90
2019-01-16T16:00:52.129Z,99.90
2019-01-16T16:03:39.393Z,99.90
2019-01-16T16:06:27.977Z,99.90
2019-01-16T16:09:32.190Z,99.90
2019-01-16T16:12:23.086Z,99.90
2019-01-16T16:15:10.069Z,99.90
2019-01-16T16:17:58.815Z,99.90
2019-01-16T16:20:45.869Z,99.90
2019-01-16T16:24:01.533Z,99.90
2019-01-16T16:27:02.983Z,99.90
2019-01-16T16:29:53.318Z,99.90
2019-01-16T16:32:51.728Z,99.90
2019-01-16T16:35:40.141Z,99.90
2019-01-16T16:38:33.841Z,99.90
2019-01-16T16:41:23.909Z,99.90
2019-01-16T16:44:11.862Z,99.90
2019-01-16T16:47:06.369Z,99.90
2019-01-16T16:49:54.683Z,99.90
2019-01-16T16:52:43.356Z,99.90
2019-01-16T16:55:32.374Z,99.90
2019-01-16T16:58:21.340Z,99.90
2019-01-16T17:01:10.190Z,99.90
2019-01-16T17:04:04.856Z,99.90
2019-01-16T17:07:03.360Z,99.90
2019-01-16T17:09:46.385Z,99.90
2019-01-16T17:12:46.411Z,99.90
2019-01-16T17:15:41.106Z,99.90
2019-01-16T17:18:28.955Z,99.90
2019-01-16T17:21:23.129Z,99.90
2019-01-16T17:24:14.564Z,99.90
2019-01-16T17:27:02.193Z,99.90
2019-01-16T17:30:09.045Z,99.90
2019-01-16T17:32:52.908Z,99.90
2019-01-16T17:35:39.617Z,99.90
2019-01-16T17:38:28.378Z,99.90
2019-01-16T17:41:06.780Z,99.90
2019-01-16T17:44:01.697Z,99.90
2019-01-16T17:46:48.782Z,99.90
2019-01-16T17:49:41.953Z,99.90
2019-01-16T17:52:39.695Z,99.90
2019-01-16T17:55:41.463Z,99.90
2019-01-16T17:58:29.033Z,99.90
2019-01-16T18:01:24.310Z,99.90
2019-01-16T18:04:22.705Z,99.90
2019-01-16T18:07:14.241Z,99.90
2019-01-16T18:10:06.878Z,99.90
2019-01-16T18:12:51.243Z,99.90
2019-01-16T18:15:45.407Z,99.90
2019-01-16T18:18:34.290Z,99.90
2019-01-16T18:21:13.971Z,99.90
2019-01-16T18:24:02.670Z,99.90
2019-01-16T18:26:49.805Z,99.90
2019-01-16T18:29:44.317Z,99.90
2019-01-16T18:32:31.177Z,99.90
2019-01-16T18:35:11.398Z,99.90
2019-01-16T18:37:55.435Z,99.90
2019-01-16T18:40:43.941Z,99.90
2019-01-16T18:43:33.051Z,99.90
2019-01-16T18:46:23.205Z,99.90
2019-01-16T18:49:24.232Z,99.90
2019-01-16T18:52:27.178Z,99.90
2019-01-16T18:55:16.283Z,99.90
2019-01-16T18:58:02.358Z,99.90
2019-01-16T19:00:50.725Z,99.90
2019-01-16T19:03:52.064Z,99.90
2019-01-16T19:06:54.759Z,99.90
2019-01-16T19:09:41.713Z,99.90
2019-01-16T19:12:30.317Z,99.90
2019-01-16T19:15:23.655Z,99.90
2019-01-16T19:18:17.805Z,99.90
2019-01-16T19:21:22.271Z,99.90
2019-01-16T19:24:11.023Z,99.90
2019-01-16T19:26:56.040Z,99.90
2019-01-16T19:29:37.363Z,99.90
2019-01-16T19:32:28.832Z,99.90
2019-01-16T19:35:15.912Z,99.90
2019-01-16T19:38:14.246Z,99.90
2019-01-16T19:41:05.581Z,99.90
2019-01-16T19:43:53.086Z,99.90
2019-01-16T19:46:51.171Z,99.90
2019-01-16T19:49:51.446Z,99.90
2019-01-16T19:52:43.830Z,99.90
2019-01-16T19:55:32.902Z,99.90
2019-01-16T19:58:24.815Z,99.90
2019-01-16T20:01:02.754Z,99.90
2019-01-16T20:03:57.410Z,99.90
2019-01-16T20:06:46.280Z,99.90
2019-01-16T20:09:43.249Z,99.90
2019-01-16T20:12:38.309Z,99.90
2019-01-16T20:15:44.050Z,99.90
2019-01-16T20:18:24.372Z,99.90
2019-01-16T20:21:21.703Z,99.90
2019-01-16T20:24:14.491Z,99.90
2019-01-16T20:27:06.604Z,99.90
2019-01-16T20:29:53.944Z,99.90
2019-01-16T20:32:42.436Z,99.90
2019-01-16T20:35:29.685Z,99.90
2019-01-16T20:38:14.032Z,99.90
2019-01-16T20:41:01.594Z,99.90
2019-01-16T20:43:51.856Z,99.90
2019-01-16T20:46:52.473Z,99.90
2019-01-16T20:49:59.606Z,99.90
2019-01-16T20:52:46.259Z,99.90
2019-01-16T20:55:34.609Z,99.90
2019-01-16T20:58:29.817Z,99.90
2019-01-16T21:01:17.874Z,99.90
2019-01-16T21:04:18.160Z,99.90
2019-01-16T21:07:07.899Z,99.90
2019-01-16T21:09:58.882Z,99.90
2019-01-16T21:12:54.769Z,99.90
2019-01-16T21:15:34.377Z,99.90
2019-01-16T21:18:35.999Z,99.90
2019-01-16T21:21:38.661Z,99.90
2019-01-16T21:24:26.011Z,99.90
2019-01-16T21:27:13.221Z,99.90
2019-01-16T21:30:03.370Z,99.90
2019-01-16T21:32:50.602Z,99.90
2019-01-16T21:35:39.173Z,99.90
2019-01-16T21:38:31.430Z,99.90
2019-01-16T21:41:23.953Z,99.90
2019-01-16T21:44:11.904Z,99.90
2019-01-16T21:46:53.782Z,99.90
2019-01-16T21:49:40.549Z,99.90
2019-01-16T21:52:38.709Z,99.90
2019-01-16T21:55:42.648Z,99.90
2019-01-16T21:58:43.357Z,99.90
2019-01-16T22:01:40.054Z,99.90
2019-01-16T22:04:33.998Z,99.90
2019-01-16T22:07:29.331Z,99.90
2019-01-16T22:10:29.733Z,99.90
2019-01-16T22:13:18.408Z,99.90
2019-01-16T22:16:13.019Z,99.90
2019-01-16T22:19:00.258Z,99.90
2019-01-16T22:21:49.006Z,99.90
2019-01-16T22:24:46.524Z,99.90
2019-01-16T22:27:45.037Z,99.90
2019-01-16T22:30:34.192Z,99.90
2019-01-16T22:33:21.278Z,99.90
2019-01-16T22:36:19.472Z,99.90
2019-01-16T22:39:16.749Z,99.90
2019-01-16T22:42:13.839Z,99.90
2019-01-16T22:45:14.201Z,99.90
2019-01-16T22:48:15.142Z,99.90
2019-01-16T22:51:01.754Z,99.90
2019-01-16T22:54:08.768Z,99.90
2019-01-16T22:56:51.396Z,99.90
2019-01-16T22:59:41.866Z,99.90
2019-01-16T23:02:23.807Z,99.90
2019-01-16T23:05:15.127Z,99.90
2019-01-16T23:07:59.475Z,99.90
2019-01-16T23:11:03.129Z,99.90
2019-01-16T23:14:09.369Z,99.90
2019-01-16T23:16:57.614Z,99.90
2019-01-16T23:19:50.077Z,99.90
2019-01-16T23:22:32.578Z,99.90
2019-01-16T23:25:22.853Z,99.90
2019-01-16T23:28:10.124Z,99.90
2019-01-16T23:31:16.460Z,99.90
2019-01-16T23:33:54.133Z,99.90
2019-01-16T23:36:42.501Z,99.90
2019-01-16T23:39:30.871Z,99.90
2019-01-16T23:42:28.577Z,99.90
2019-01-16T23:45:17.012Z,99.90
2019-01-16T23:48:15.022Z,99.90
2019-01-16T23:51:01.013Z,99.90
2019-01-16T23:53:57.955Z,99.90
2019-01-16T23:56:55.710Z,99.90
2019-01-16T23:59:42.852Z,99.90
